Time;durP1;ratioP1;P1;durP2;ratioP2;P2;SDS_P1;SDS_P2;PMS_P1;PMS_P2;Temp;Humidity;BMP_temperature;BMP_pressure;BME280_temperature;BME280_humidity;BME280_pressure;Samples;Min_cycle;Max_cycle;Signal;HPM_P1;HPM_P2
2022/01/24 00:00:20;;;;;;;5.82;5.22;;;;;;;5.09;100.00;103569.88;6188831;23;20029;-79
2022/01/24 00:02:49;;;;;;;6.43;5.88;;;;;;;5.10;100.00;103566.44;6151753;23;20032;-77
2022/01/24 00:05:18;;;;;;;5.82;5.28;;;;;;;5.10;100.00;103581.25;6241643;23;20039;-79
2022/01/24 00:07:53;;;;;;;6.15;5.57;;;;;;;5.07;100.00;103576.72;6187036;23;20342;-79
2022/01/24 00:10:25;;;;;;;6.50;5.57;;;;;;;5.05;100.00;103573.09;6160353;23;20028;-77
2022/01/24 00:15:47;;;;;;;6.30;5.50;;;;;;;5.04;100.00;103571.25;6216736;23;20210;-78
2022/01/24 00:18:14;;;;;;;5.95;5.35;;;;;;;5.03;100.00;103569.47;6179957;23;20020;-76
2022/01/24 00:29:05;;;;;;;6.22;5.47;;;;;;;4.97;100.00;103567.34;6224495;23;20343;-77
2022/01/24 00:31:40;;;;;;;5.43;4.93;;;;;;;5.00;100.00;103569.25;6189491;23;20020;-78
2022/01/24 00:34:08;;;;;;;6.43;5.32;;;;;;;5.01;100.00;103568.44;6231459;23;20020;-77
2022/01/24 00:36:38;;;;;;;6.45;5.85;;;;;;;5.02;100.00;103570.25;6201938;22;20129;-78
2022/01/24 00:39:15;;;;;;;6.88;5.47;;;;;;;5.03;100.00;103561.63;6215838;22;20011;-77
2022/01/24 00:47:10;;;;;;;7.97;5.75;;;;;;;5.03;100.00;103561.63;6268289;22;20027;-77
2022/01/24 00:55:06;;;;;;;6.93;6.22;;;;;;;4.99;100.00;103552.66;6270612;22;20023;-78
2022/01/24 00:57:36;;;;;;;6.18;4.97;;;;;;;5.01;100.00;103564.13;6253753;22;20019;-78
2022/01/24 01:00:05;;;;;;;5.70;5.20;;;;;;;4.99;100.00;103564.81;6252684;22;20449;-77
2022/01/24 01:02:34;;;;;;;8.20;5.30;;;;;;;4.99;100.00;103564.81;6225921;22;20217;-77
2022/01/24 01:05:46;;;;;;;5.88;5.25;;;;;;;4.97;100.00;103566.41;6266373;22;20023;-77
2022/01/24 01:18:52;;;;;;;6.30;5.50;;;;;;;4.91;100.00;103553.81;6283522;22;20012;-77
2022/01/24 01:21:25;;;;;;;5.50;5.00;;;;;;;4.89;100.00;103558.94;6254319;22;20033;-78
2022/01/24 01:23:57;;;;;;;8.18;5.18;;;;;;;4.89;100.00;103561.53;6277467;22;20020;-78
2022/01/24 01:26:39;;;;;;;6.35;5.22;;;;;;;4.88;100.00;103551.91;6277580;22;20224;-78
2022/01/24 01:29:14;;;;;;;7.13;5.50;;;;;;;4.89;100.00;103558.03;6255960;22;20019;-78
2022/01/24 01:54:30;;;;;;;6.32;5.18;;;;;;;4.82;100.00;103553.16;6262466;22;20027;-77
2022/01/24 01:57:00;;;;;;;5.13;4.63;;;;;;;4.81;100.00;103557.50;6256082;22;20017;-78
2022/01/24 01:59:29;;;;;;;6.13;4.90;;;;;;;4.80;100.00;103552.16;6276857;22;20553;-78
2022/01/24 02:02:20;;;;;;;5.22;4.72;;;;;;;4.79;100.00;103555.59;6246651;22;20019;-78
2022/01/24 02:05:12;;;;;;;5.57;5.03;;;;;;;4.77;100.00;103557.19;6241394;22;20019;-77
2022/01/24 02:07:46;;;;;;;7.10;5.03;;;;;;;4.77;100.00;103551.97;6217388;22;20023;-77
2022/01/24 02:10:16;;;;;;;5.28;4.78;;;;;;;4.76;100.00;103551.03;6222919;22;20022;-77
2022/01/24 02:12:46;;;;;;;;;;;;;;;4.74;100.00;103547.41;6228249;22;20020;-78
2022/01/24 02:15:21;;;;;;;4.93;4.50;;;;;;;4.74;100.00;103554.34;6270341;22;19919;-77
2022/01/24 02:25:59;;;;;;;5.50;5.10;;;;;;;4.72;100.00;103545.50;6226650;22;20020;-78
2022/01/24 02:28:43;;;;;;;5.85;5.28;;;;;;;4.73;100.00;103549.94;6233496;22;20023;-77
2022/01/24 02:34:26;;;;;;;5.18;4.68;;;;;;;4.69;100.00;103546.19;6208045;23;20020;-78
2022/01/24 02:37:00;;;;;;;6.03;5.53;;;;;;;4.68;100.00;103541.75;6264670;22;20027;-77
2022/01/24 02:53:18;;;;;;;5.82;5.28;;;;;;;4.61;100.00;103545.66;6271231;22;20074;-77
2022/01/24 02:55:47;;;;;;;6.10;5.50;;;;;;;4.58;100.00;103545.44;6205769;22;20457;-77
2022/01/24 02:58:19;;;;;;;6.25;5.65;;;;;;;4.57;100.00;103541.00;6263952;22;20215;-77
2022/01/24 03:00:52;;;;;;;6.80;6.20;;;;;;;4.58;100.00;103532.38;6194598;22;20019;-78
2022/01/24 03:03:22;;;;;;;6.05;4.88;;;;;;;4.58;100.00;103545.44;6240993;22;20050;-77
2022/01/24 03:05:51;;;;;;;6.65;6.03;;;;;;;4.58;100.00;103521.94;6253591;22;20045;-77
2022/01/24 03:08:22;;;;;;;6.82;5.63;;;;;;;4.57;100.00;103525.31;6272819;22;20140;-77
2022/01/24 03:10:52;;;;;;;6.70;6.10;;;;;;;4.57;100.00;103522.72;6214135;22;20027;-77
2022/01/24 03:15:51;;;;;;;8.43;6.07;;;;;;;4.58;100.00;103524.53;6233514;22;20020;-78
2022/01/24 03:18:21;;;;;;;6.63;5.72;;;;;;;4.58;100.00;103521.03;6209055;22;20153;-78
2022/01/24 03:20:50;;;;;;;6.40;5.78;;;;;;;4.58;100.00;103521.03;6249997;22;20046;-79
2022/01/24 03:23:20;;;;;;;6.47;5.88;;;;;;;4.58;100.00;103513.19;6272065;22;20241;-78
2022/01/24 03:25:49;;;;;;;6.70;6.10;;;;;;;4.56;100.00;103520.91;6269651;22;20019;-78
2022/01/24 03:28:23;;;;;;;8.15;6.03;;;;;;;4.57;100.00;103517.50;6268736;22;20020;-78
2022/01/24 03:30:56;;;;;;;7.35;6.03;;;;;;;4.58;100.00;103513.19;6216382;22;20484;-79
2022/01/24 03:33:25;;;;;;;6.32;5.72;;;;;;;4.56;100.00;103520.03;6272902;22;20243;-78
2022/01/24 03:35:53;;;;;;;6.07;5.50;;;;;;;4.56;100.00;103520.03;6262253;22;20466;-77
2022/01/24 03:38:23;;;;;;;7.47;6.32;;;;;;;4.56;100.00;103513.09;6271843;22;20031;-77
2022/01/24 03:41:10;;;;;;;6.22;5.47;;;;;;;4.56;100.00;103509.56;6231703;22;20016;-77
2022/01/24 03:43:39;;;;;;;6.50;5.80;;;;;;;4.54;100.00;103512.06;6178508;22;20019;-78
2022/01/24 03:48:48;;;;;;;6.07;5.47;;;;;;;4.55;100.00;103515.59;6250526;22;20022;-78
2022/01/24 03:51:18;;;;;;;5.65;5.15;;;;;;;4.53;100.00;103512.84;6213638;22;20330;-78
2022/01/24 03:53:47;;;;;;;6.95;6.30;;;;;;;4.52;100.00;103503.22;6274984;22;20027;-78
2022/01/24 03:56:17;;;;;;;7.28;5.47;;;;;;;4.53;100.00;103510.25;6254765;22;20030;-77
2022/01/24 03:58:47;;;;;;;6.57;4.50;;;;;;;4.51;100.00;103510.94;6227796;22;20470;-78
2022/01/24 04:01:16;;;;;;;6.80;6.10;;;;;;;4.52;100.00;103502.28;6226604;22;20019;-78
2022/01/24 04:03:45;;;;;;;5.80;5.30;;;;;;;4.51;100.00;103503.13;6276907;22;20445;-78
2022/01/24 04:06:17;;;;;;;6.65;6.05;;;;;;;4.50;100.00;103507.44;6256624;22;20020;-77
2022/01/24 04:08:45;;;;;;;6.88;6.10;;;;;;;4.48;100.00;103496.88;6277358;22;20015;-77
2022/01/24 04:11:15;;;;;;;7.68;6.28;;;;;;;4.47;100.00;103499.38;6239498;22;20012;-78
2022/01/24 04:13:44;;;;;;;6.60;5.90;;;;;;;4.48;100.00;103507.31;6238982;22;20030;-77
2022/01/24 04:16:31;;;;;;;6.80;6.10;;;;;;;4.46;100.00;103501.09;6233858;22;20015;-78
2022/01/24 04:21:16;;;;;;;8.40;6.72;;;;;;;4.44;100.00;103494.84;6244555;22;20027;-77
2022/01/24 04:21:58;;;;;;;6.60;5.93;;;;;;;4.43;100.00;103513.91;6243910;22;20020;-77
2022/01/24 04:24:29;;;;;;;9.55;6.82;;;;;;;4.42;100.00;103512.13;6238483;22;20219;-78
2022/01/24 04:26:58;;;;;;;8.23;6.97;;;;;;;4.41;100.00;103507.69;6244224;22;20024;-78
2022/01/24 04:29:26;;;;;;;8.18;6.93;;;;;;;4.43;100.00;103518.25;6202741;22;20323;-77
2022/01/24 04:31:56;;;;;;;8.07;7.13;;;;;;;4.41;100.00;103510.28;6240459;22;20020;-78
2022/01/24 04:34:24;;;;;;;7.68;6.60;;;;;;;4.41;100.00;103509.41;6275693;22;20043;-78
2022/01/24 04:36:53;;;;;;;8.07;7.28;;;;;;;4.41;100.00;103505.06;6252827;22;20020;-77
2022/01/24 04:39:22;;;;;;;7.53;6.78;;;;;;;4.41;100.00;103509.41;6247503;22;20019;-77
2022/01/24 04:41:54;;;;;;;9.43;7.38;;;;;;;4.41;100.00;103505.06;6251670;22;20016;-78
2022/01/24 04:47:19;;;;;;;8.35;7.35;;;;;;;4.41;100.00;103506.78;6253177;22;20023;-77
2022/01/24 04:55:08;;;;;;;9.30;8.00;;;;;;;4.43;100.00;103507.78;6231620;22;20015;-76
2022/01/24 04:57:37;;;;;;;8.50;7.50;;;;;;;4.40;100.00;103505.84;6239167;22;20023;-77
2022/01/24 05:00:10;;;;;;;8.35;7.45;;;;;;;4.41;100.00;103509.41;6228401;22;20336;-77
2022/01/24 05:02:39;;;;;;;10.68;7.35;;;;;;;4.42;100.00;103495.53;6274085;22;20027;-77
2022/01/24 05:05:27;;;;;;;8.88;8.00;;;;;;;4.43;100.00;103507.78;6245887;22;20016;-78
2022/01/24 05:07:57;;;;;;;8.95;8.05;;;;;;;4.42;100.00;103503.34;6159247;22;20030;-76
2022/01/24 05:10:36;;;;;;;11.57;8.10;;;;;;;4.41;100.00;103488.50;6274182;22;20028;-77
2022/01/24 05:24:22;;;;;;;9.57;8.57;;;;;;;4.40;100.00;103507.56;6200542;22;20023;-78
2022/01/24 05:26:51;;;;;;;11.48;9.43;;;;;;;4.40;100.00;103503.25;6207234;22;20623;-78
2022/01/24 05:29:20;;;;;;;10.45;9.35;;;;;;;4.41;100.00;103509.41;6240708;22;20031;-78
2022/01/24 05:31:48;;;;;;;9.45;8.15;;;;;;;4.40;100.00;103503.25;6286308;22;20024;-77
2022/01/24 05:34:20;;;;;;;9.32;8.32;;;;;;;4.41;100.00;103502.47;6265413;22;20039;-78
2022/01/24 05:36:49;;;;;;;10.90;8.98;;;;;;;4.41;100.00;103498.94;6234412;22;20036;-78
2022/01/24 05:39:17;;;;;;;9.00;8.07;;;;;;;4.41;100.00;103496.34;6276949;22;20024;-77
2022/01/24 05:41:46;;;;;;;9.43;8.18;;;;;;;4.41;100.00;103496.34;6273660;22;20020;-77
2022/01/24 05:44:15;;;;;;;12.30;8.55;;;;;;;4.41;100.00;103493.72;6241619;22;20361;-78
2022/01/24 05:46:44;;;;;;;12.55;10.38;;;;;;;4.41;100.00;103493.72;6245137;22;20353;-78
2022/01/24 05:49:12;;;;;;;11.38;9.18;;;;;;;4.41;100.00;103493.72;6254013;22;20047;-78
2022/01/24 05:51:42;;;;;;;9.48;8.35;;;;;;;4.39;100.00;103506.66;6271466;22;20342;-77
2022/01/24 05:54:13;;;;;;;9.63;8.25;;;;;;;4.40;100.00;103494.50;6242793;22;20016;-77
2022/01/24 05:56:41;;;;;;;9.85;8.73;;;;;;;4.39;100.00;103498.84;6237530;22;20030;-77
2022/01/24 05:59:10;;;;;;;10.70;8.95;;;;;;;4.39;100.00;103501.44;6240241;22;20015;-77
2022/01/24 06:01:38;;;;;;;11.02;9.60;;;;;;;4.40;100.00;103503.25;6166421;22;20030;-77
2022/01/24 06:04:07;;;;;;;11.48;9.23;;;;;;;4.40;100.00;103502.34;6262732;22;20236;-78
2022/01/24 06:06:36;;;;;;;11.18;9.25;;;;;;;4.39;100.00;103500.53;6220628;22;20024;-76
2022/01/24 06:09:05;;;;;;;11.88;9.55;;;;;;;4.40;100.00;103495.41;6275190;22;20319;-77
2022/01/24 06:11:33;;;;;;;10.80;9.43;;;;;;;4.39;100.00;103506.66;6274407;22;20020;-77
2022/01/24 06:14:04;;;;;;;11.82;9.55;;;;;;;4.39;100.00;103511.00;6213462;22;20043;-77
2022/01/24 06:16:33;;;;;;;12.68;10.57;;;;;;;4.39;100.00;103518.81;6237433;22;20020;-77
2022/01/24 06:19:02;;;;;;;11.23;9.50;;;;;;;4.39;100.00;103516.22;6262229;22;20050;-79
2022/01/24 06:21:31;;;;;;;12.45;10.25;;;;;;;4.38;100.00;103520.50;6274448;22;20480;-77
2022/01/24 06:23:59;;;;;;;13.93;10.40;;;;;;;4.39;100.00;103521.44;6244595;22;20244;-78
2022/01/24 06:26:28;;;;;;;13.18;10.68;;;;;;;4.37;100.00;103523.94;6204823;22;20027;-77
2022/01/24 06:28:57;;;;;;;13.63;10.10;;;;;;;4.37;100.00;103517.81;6271828;22;20139;-77
2022/01/24 06:31:25;;;;;;;12.48;10.38;;;;;;;4.38;100.00;103520.50;6242641;22;20471;-78
2022/01/24 06:33:54;;;;;;;15.05;10.90;;;;;;;4.39;100.00;103522.34;6250592;22;20020;-78
2022/01/24 06:36:24;;;;;;;13.02;10.55;;;;;;;4.40;100.00;103518.91;6197424;22;20031;-78
2022/01/24 06:38:53;;;;;;;13.57;11.32;;;;;;;4.39;100.00;103524.94;6236486;22;20145;-77
2022/01/24 06:41:28;;;;;;;16.70;10.35;;;;;;;4.39;100.00;103526.66;6221336;22;20015;-77
2022/01/24 06:43:56;;;;;;;14.05;10.95;;;;;;;4.39;100.00;103526.66;6258204;22;20051;-77
2022/01/24 06:46:25;;;;;;;12.68;10.65;;;;;;;4.40;100.00;103525.84;6264157;22;20015;-78
2022/01/24 06:48:54;;;;;;;13.15;10.57;;;;;;;4.40;100.00;103525.84;6275021;22;20551;-78
2022/01/24 06:51:23;;;;;;;13.70;11.20;;;;;;;4.39;100.00;103521.44;6217459;22;20015;-79
2022/01/24 06:53:52;;;;;;;13.93;11.50;;;;;;;4.39;100.00;103521.44;6242339;22;20012;-78
2022/01/24 06:56:21;;;;;;;12.40;10.43;;;;;;;4.40;100.00;103525.84;6203584;22;20034;-78
2022/01/24 06:58:50;;;;;;;16.02;12.10;;;;;;;4.39;100.00;103522.34;6266274;22;20027;-78
2022/01/24 07:01:20;;;;;;;16.65;12.50;;;;;;;4.39;100.00;103532.78;6225604;22;20023;-78
2022/01/24 07:03:49;;;;;;;16.17;12.52;;;;;;;4.38;100.00;103530.06;6284717;22;20026;-78
2022/01/24 07:06:17;;;;;;;16.92;12.10;;;;;;;4.39;100.00;103526.66;6229382;22;20319;-78
2022/01/24 07:08:46;;;;;;;18.55;13.10;;;;;;;4.38;100.00;103523.13;6192570;22;20024;-77
2022/01/24 07:11:15;;;;;;;16.25;12.50;;;;;;;4.37;100.00;103520.41;6251283;22;20026;-77
2022/01/24 07:13:44;;;;;;;16.40;12.65;;;;;;;4.37;100.00;103512.59;6216026;22;20023;-78
2022/01/24 07:16:14;;;;;;;16.60;12.98;;;;;;;4.37;100.00;103517.81;6209469;22;20110;-77
2022/01/24 07:18:58;;;;;;;17.30;12.25;;;;;;;4.35;100.00;103516.75;6259482;22;20026;-77
2022/01/24 07:21:27;;;;;;;16.92;12.82;;;;;;;4.34;100.00;103512.34;6271321;22;20020;-77
2022/01/24 07:23:56;;;;;;;16.13;12.57;;;;;;;4.32;100.00;103520.06;6273992;22;20489;-78
2022/01/24 07:26:30;;;;;;;17.55;13.52;;;;;;;4.29;100.00;103531.22;6280074;22;20006;-78
2022/01/24 07:28:58;;;;;;;21.02;13.43;;;;;;;4.26;100.00;103530.09;6262421;22;20241;-77
2022/01/24 07:31:27;;;;;;;18.27;12.52;;;;;;;4.26;100.00;103523.16;6253786;22;20026;-76
2022/01/24 07:33:56;;;;;;;16.60;13.50;;;;;;;4.28;100.00;103533.72;6239537;22;20221;-78
2022/01/24 07:36:25;;;;;;;18.13;13.65;;;;;;;4.28;100.00;103526.78;6272841;22;20012;-77
2022/01/24 07:38:58;;;;;;;18.17;13.88;;;;;;;4.28;100.00;103529.38;6247238;22;20034;-77
2022/01/24 07:41:27;;;;;;;18.13;13.38;;;;;;;4.30;100.00;103534.72;6245614;22;20020;-77
2022/01/24 07:43:57;;;;;;;18.27;13.80;;;;;;;4.32;100.00;103529.63;6206850;22;20019;-77
2022/01/24 07:46:25;;;;;;;19.63;14.32;;;;;;;4.32;100.00;103532.22;6271955;22;20035;-77
2022/01/24 07:48:54;;;;;;;19.45;13.82;;;;;;;4.32;100.00;103529.63;6265393;22;20015;-78
2022/01/24 07:51:23;;;;;;;17.55;13.68;;;;;;;4.32;100.00;103529.63;6275272;22;20019;-78
2022/01/24 07:53:51;;;;;;;15.75;13.00;;;;;;;4.32;100.00;103540.06;6221635;22;20030;-78
2022/01/24 07:56:20;;;;;;;25.42;14.73;;;;;;;4.33;100.00;103536.63;6275152;22;20031;-78
2022/01/24 07:58:49;;;;;;;17.10;13.30;;;;;;;4.32;100.00;103540.06;6247782;22;20051;-78
2022/01/24 08:01:20;;;;;;;19.08;14.48;;;;;;;4.33;100.00;103547.06;6228537;22;20027;-78
2022/01/24 08:03:49;;;;;;;18.13;13.70;;;;;;;4.33;100.00;103547.06;6275492;22;20296;-79
2022/01/24 08:06:18;;;;;;;23.67;14.35;;;;;;;4.33;100.00;103544.47;6215394;22;20023;-77
2022/01/24 08:08:47;;;;;;;17.20;13.27;;;;;;;4.34;100.00;103554.13;6225774;22;20019;-77
2022/01/24 08:11:18;;;;;;;20.17;14.75;;;;;;;4.34;100.00;103549.81;6271920;22;20473;-79
2022/01/24 08:13:47;;;;;;;17.08;13.25;;;;;;;4.34;100.00;103554.13;6206457;22;20177;-77
2022/01/24 08:16:17;;;;;;;18.75;14.15;;;;;;;4.34;100.00;103548.91;6237468;22;20023;-76
2022/01/24 08:18:50;;;;;;;22.38;16.50;;;;;;;4.35;100.00;103548.09;6269022;22;20022;-77
2022/01/24 08:21:20;;;;;;;19.70;15.05;;;;;;;4.35;100.00;103551.63;6252164;22;20016;-78
2022/01/24 08:23:50;;;;;;;18.95;14.30;;;;;;;4.36;100.00;103550.81;6262024;22;20268;-77
2022/01/24 08:26:19;;;;;;;19.58;13.93;;;;;;;4.37;100.00;103556.97;6269668;22;20457;-78
2022/01/24 08:28:48;;;;;;;18.13;13.60;;;;;;;4.38;100.00;103550.94;6241749;22;20235;-79
2022/01/24 08:31:16;;;;;;;19.15;14.60;;;;;;;4.37;100.00;103555.25;6240026;22;20011;-78
2022/01/24 08:33:46;;;;;;;17.58;14.00;;;;;;;4.35;100.00;103556.84;6227520;22;20634;-77
2022/01/24 08:36:19;;;;;;;20.65;14.23;;;;;;;4.35;100.00;103555.94;6262762;22;20027;-77
2022/01/24 08:42:45;;;;;;;;;;;;;;;4.36;100.00;103558.66;6169318;23;20028;-76
2022/01/24 08:48:01;;;;;;;15.77;13.15;;;;;;;4.40;100.00;103549.34;6202081;23;20024;-77
2022/01/24 08:50:30;;;;;;;17.73;13.52;;;;;;;4.40;100.00;103555.47;6191054;23;20470;-77
2022/01/24 08:53:03;;;;;;;14.73;11.50;;;;;;;4.40;100.00;103551.94;6154363;23;20020;-78
2022/01/24 08:55:36;;;;;;;13.63;10.05;;;;;;;4.40;100.00;103546.72;6181715;23;20016;-77
2022/01/24 08:58:07;;;;;;;19.50;12.70;;;;;;;4.42;100.00;103553.91;6242827;23;20024;-78
2022/01/24 09:00:35;;;;;;;19.65;13.05;;;;;;;4.43;100.00;103550.47;6233903;22;20046;-77
2022/01/24 09:03:04;;;;;;;16.52;12.68;;;;;;;4.43;100.00;103550.47;6263944;22;20046;-78
2022/01/24 09:05:35;;;;;;;17.98;13.07;;;;;;;4.45;100.00;103545.38;6246769;22;20019;-77
2022/01/24 09:08:05;;;;;;;17.50;12.55;;;;;;;4.45;100.00;103545.38;6266516;22;20015;-78
2022/01/24 09:10:35;;;;;;;17.97;12.13;;;;;;;4.45;100.00;103535.81;6253170;22;20358;-77
2022/01/24 09:13:05;;;;;;;16.92;11.77;;;;;;;4.46;100.00;103539.31;6249978;22;20434;-77
2022/01/24 09:15:33;;;;;;;15.35;11.88;;;;;;;4.49;100.00;103542.16;6273790;22;20015;-77
2022/01/24 09:18:02;;;;;;;14.55;11.80;;;;;;;4.50;100.00;103544.00;6258664;22;20446;-77
2022/01/24 09:20:31;;;;;;;16.02;11.73;;;;;;;4.52;100.00;103555.47;6273532;22;20015;-77
2022/01/24 09:23:00;;;;;;;15.05;12.30;;;;;;;4.52;100.00;103555.47;6237318;22;20023;-77
2022/01/24 09:25:29;;;;;;;16.38;12.32;;;;;;;4.52;100.00;103549.31;6275584;22;20019;-77
2022/01/24 09:27:57;;;;;;;14.65;12.13;;;;;;;4.51;100.00;103553.63;6261575;22;20016;-77
2022/01/24 09:30:26;;;;;;;14.82;11.05;;;;;;;4.51;100.00;103545.78;6237660;22;20054;-78
2022/01/24 09:32:55;;;;;;;13.80;10.50;;;;;;;4.50;100.00;103546.59;6208763;22;20027;-78
2022/01/24 09:35:26;;;;;;;12.43;10.20;;;;;;;4.48;100.00;103532.53;6201941;22;20016;-78
2022/01/24 09:37:55;;;;;;;13.50;10.55;;;;;;;4.50;100.00;103536.16;6247002;22;20023;-78
2022/01/24 09:40:24;;;;;;;15.55;10.57;;;;;;;4.52;100.00;103547.63;6240346;22;20019;-77
2022/01/24 09:42:53;;;;;;;13.80;9.85;;;;;;;4.54;100.00;103548.63;6236423;22;20137;-77
2022/01/24 09:45:22;;;;;;;15.13;11.15;;;;;;;4.54;100.00;103553.84;6249540;22;20022;-77
2022/01/24 09:47:52;;;;;;;17.98;10.43;;;;;;;4.53;100.00;103543.28;6237378;22;20205;-78
2022/01/24 09:50:21;;;;;;;20.02;13.77;;;;;;;4.53;100.00;103549.41;6261596;22;20019;-76
2022/01/24 09:52:50;;;;;;;15.15;12.18;;;;;;;4.54;100.00;103540.78;6281835;22;20024;-77
2022/01/24 09:55:21;;;;;;;15.05;12.18;;;;;;;4.57;100.00;103547.94;6238792;22;20046;-77
2022/01/24 09:57:50;;;;;;;18.08;14.07;;;;;;;4.55;100.00;103549.53;6206615;22;20026;-77
2022/01/24 10:00:22;;;;;;;19.73;13.63;;;;;;;4.58;100.00;103545.44;6231637;22;20474;-77
2022/01/24 10:02:52;;;;;;;16.02;12.75;;;;;;;4.61;100.00;103545.66;6205896;22;20209;-77
2022/01/24 10:05:40;;;;;;;21.33;13.95;;;;;;;4.65;100.00;103551.97;6247789;22;20016;-77
2022/01/24 10:08:30;;;;;;;21.17;12.15;;;;;;;4.68;100.00;103552.22;6271463;22;20019;-77
2022/01/24 10:11:01;;;;;;;;;;;;;;;4.66;100.00;103549.47;6270922;22;20574;-77
2022/01/24 10:16:43;;;;;;;15.75;13.20;;;;;;;4.69;100.00;103564.50;6251108;22;20012;-77
2022/01/24 10:19:14;;;;;;;14.98;12.82;;;;;;;4.71;100.00;103559.34;6266627;22;20019;-77
2022/01/24 10:22:03;;;;;;;18.50;12.00;;;;;;;4.72;100.00;103562.06;6256136;22;20031;-77
2022/01/24 10:24:42;;;;;;;18.70;14.02;;;;;;;4.72;100.00;103549.00;6274982;22;20016;-77
2022/01/24 10:27:15;;;;;;;16.50;13.52;;;;;;;4.74;100.00;103552.63;6244004;22;20011;-77
2022/01/24 10:29:53;;;;;;;17.90;13.77;;;;;;;4.77;100.00;103551.97;6234926;22;20217;-78
2022/01/24 10:32:30;;;;;;;16.48;12.30;;;;;;;4.76;100.00;103556.25;6223893;22;20023;-77
2022/01/24 10:35:43;;;;;;;16.05;12.50;;;;;;;4.77;100.00;103565.94;6227987;22;20027;-78
2022/01/24 10:38:44;;;;;;;15.93;13.07;;;;;;;4.80;100.00;103562.59;6249401;22;20030;-77
2022/01/24 10:41:21;;;;;;;19.80;12.98;;;;;;;4.83;100.00;103560.22;6264326;22;20381;-77
2022/01/24 10:43:58;;;;;;;17.75;12.98;;;;;;;4.85;100.00;103562.13;6212066;22;20397;-76
2022/01/24 10:46:46;;;;;;;13.93;11.38;;;;;;;4.85;100.00;103563.84;6253968;22;20466;-78
2022/01/24 10:49:16;;;;;;;14.85;12.57;;;;;;;4.85;100.00;103562.13;6258181;22;20328;-77
2022/01/24 10:51:46;;;;;;;20.17;14.63;;;;;;;4.85;100.00;103558.63;6254756;22;20461;-76
2022/01/24 10:54:26;;;;;;;17.27;13.05;;;;;;;4.88;100.00;103558.84;6176625;22;20266;-77
2022/01/24 10:56:55;;;;;;;18.20;13.60;;;;;;;4.90;100.00;103562.47;6231670;22;20023;-77
2022/01/24 10:59:25;;;;;;;18.77;14.73;;;;;;;4.92;100.00;103559.97;6175431;22;20086;-78
2022/01/24 11:01:58;;;;;;;19.92;15.32;;;;;;;4.94;100.00;103554.03;6227948;22;20453;-78
2022/01/24 11:04:28;;;;;;;21.23;15.07;;;;;;;4.93;100.00;103557.44;6258196;22;20204;-76
2022/01/24 11:06:59;;;;;;;23.98;17.80;;;;;;;4.93;100.00;103544.38;6223434;22;20020;-77
2022/01/24 11:09:37;;;;;;;27.63;19.27;;;;;;;4.93;100.00;103549.59;6244165;22;20031;-78
2022/01/24 11:12:10;;;;;;;26.13;18.95;;;;;;;4.93;100.00;103541.75;6206673;22;20031;-77
2022/01/24 11:14:43;;;;;;;26.50;19.75;;;;;;;4.93;100.00;103536.53;6225477;22;20047;-76
2022/01/24 11:17:18;;;;;;;25.58;18.98;;;;;;;4.93;100.00;103523.47;6236181;22;20026;-76
2022/01/24 11:19:56;;;;;;;29.63;20.52;;;;;;;4.95;100.00;103527.09;6253758;22;20019;-76
2022/01/24 11:22:28;;;;;;;30.92;21.50;;;;;;;4.95;100.00;103532.31;6248633;22;20031;-76
2022/01/24 11:25:07;;;;;;;31.38;22.25;;;;;;;4.96;100.00;103535.88;6231165;22;20020;-76
2022/01/24 11:27:43;;;;;;;29.88;20.92;;;;;;;4.94;100.00;103537.47;6260363;22;20030;-76
2022/01/24 11:30:22;;;;;;;29.33;21.33;;;;;;;4.91;100.00;103532.00;6269693;22;20063;-76
2022/01/24 11:33:12;;;;;;;33.45;24.15;;;;;;;4.92;100.00;103536.47;6195403;22;20034;-76
2022/01/24 11:35:50;;;;;;;33.63;23.83;;;;;;;4.92;100.00;103526.91;6223473;22;20020;-77
2022/01/24 11:38:37;;;;;;;35.75;23.85;;;;;;;4.93;100.00;103533.91;6244560;22;20027;-78
2022/01/24 11:41:23;;;;;;;34.72;23.85;;;;;;;4.96;100.00;103526.31;6231635;22;20023;-77
2022/01/24 11:44:00;;;;;;;34.13;23.42;;;;;;;4.98;100.00;103523.81;6229816;22;20058;-76
2022/01/24 11:46:52;;;;;;;32.22;22.00;;;;;;;5.01;100.00;103527.53;6262039;22;20362;-77
2022/01/24 11:49:27;;;;;;;35.80;23.42;;;;;;;5.02;100.00;103524.09;6253584;22;20019;-77
2022/01/24 11:52:14;;;;;;;36.65;23.85;;;;;;;5.02;100.00;103531.06;6263436;22;20026;-77
2022/01/24 11:57:41;;;;;;;37.15;25.70;;;;;;;5.01;100.00;103521.38;6270287;22;20027;-77
2022/01/24 12:00:10;;;;;;;34.08;23.50;;;;;;;5.00;100.00;103517.88;6241263;22;20452;-77
2022/01/24 12:02:50;;;;;;;37.33;25.55;;;;;;;5.00;100.00;103509.13;6227179;22;20028;-77
2022/01/24 12:05:31;;;;;;;41.05;25.88;;;;;;;4.99;100.00;103505.63;6260254;22;20539;-77
2022/01/24 12:08:03;;;;;;;37.60;25.80;;;;;;;5.02;100.00;103513.66;6258822;22;20453;-77
2022/01/24 12:10:55;;;;;;;36.33;24.83;;;;;;;5.04;100.00;103519.00;6253240;22;20023;-77
2022/01/24 12:13:31;;;;;;;38.90;24.88;;;;;;;5.02;100.00;103512.75;6270692;22;20024;-77
2022/01/24 12:16:03;;;;;;;37.05;24.23;;;;;;;5.01;100.00;103506.63;6247683;22;20377;-77
2022/01/24 12:18:43;;;;;;;35.40;23.27;;;;;;;5.02;100.00;103500.59;6256958;22;20020;-77
2022/01/24 12:21:13;;;;;;;38.05;25.25;;;;;;;5.04;100.00;103495.47;6247454;22;20024;-77
2022/01/24 12:23:47;;;;;;;33.70;23.65;;;;;;;5.03;100.00;103491.97;6259838;22;20030;-77
2022/01/24 12:26:45;;;;;;;32.78;22.60;;;;;;;5.02;100.00;103487.53;6261344;22;20027;-77
2022/01/24 12:29:26;;;;;;;34.45;24.20;;;;;;;5.04;100.00;103487.63;6238160;22;20026;-77
2022/01/24 12:31:58;;;;;;;35.10;22.40;;;;;;;5.05;100.00;103482.50;6225900;22;20213;-75
2022/01/24 12:34:37;;;;;;;33.40;22.33;;;;;;;5.07;100.00;103474.78;6261937;22;20016;-77
2022/01/24 12:37:29;;;;;;;35.60;24.90;;;;;;;5.06;100.00;103472.97;6276111;22;20050;-77
2022/01/24 12:40:07;;;;;;;37.83;24.65;;;;;;;5.03;100.00;103478.88;6263098;22;20026;-77
2022/01/24 12:48:20;;;;;;;38.40;25.53;;;;;;;5.05;100.00;103476.38;6248472;22;20448;-77
2022/01/24 12:50:51;;;;;;;40.65;24.70;;;;;;;5.05;100.00;103481.63;6193735;22;20250;-77
2022/01/24 12:53:22;;;;;;;36.67;24.92;;;;;;;5.04;100.00;103474.56;6271645;22;20027;-76
2022/01/24 12:56:14;;;;;;;37.45;24.85;;;;;;;5.00;100.00;103476.06;6196409;22;20144;-78
2022/01/24 12:58:53;;;;;;;38.20;24.60;;;;;;;4.96;100.00;103468.81;6231262;22;20023;-78
2022/01/24 13:01:32;;;;;;;36.55;24.27;;;;;;;4.95;100.00;103473.94;6213319;22;20035;-78
2022/01/24 13:04:08;;;;;;;39.63;26.40;;;;;;;4.93;100.00;103472.94;6260828;22;20023;-76
2022/01/24 13:06:43;;;;;;;46.58;26.52;;;;;;;4.92;100.00;103461.56;6259038;22;20027;-79
2022/01/24 13:09:29;;;;;;;42.83;25.60;;;;;;;4.92;100.00;103461.56;6201727;22;20371;-77
2022/01/24 13:12:10;;;;;;;36.53;23.50;;;;;;;4.94;100.00;103459.97;6229383;22;20370;-77
2022/01/24 13:14:53;;;;;;;37.92;26.17;;;;;;;4.97;100.00;103451.41;6241738;22;20520;-78
2022/01/24 13:23:07;;;;;;;37.25;24.23;;;;;;;4.93;100.00;103454.63;6238260;22;20027;-78
2022/01/24 13:25:40;;;;;;;33.72;23.40;;;;;;;4.92;100.00;103451.13;6226197;22;20409;-77
2022/01/24 13:28:12;;;;;;;34.17;22.95;;;;;;;4.93;100.00;103454.63;6203453;22;20643;-77
2022/01/24 13:31:00;;;;;;;34.70;23.00;;;;;;;4.91;100.00;103446.69;6258751;22;20217;-78
2022/01/24 13:33:45;;;;;;;32.40;21.70;;;;;;;4.92;100.00;103438.06;6265999;22;20027;-77
2022/01/24 13:36:19;;;;;;;32.13;21.73;;;;;;;4.92;100.00;103438.06;6226922;22;20030;-78
2022/01/24 13:38:54;;;;;;;31.30;21.60;;;;;;;4.92;100.00;103443.28;6256704;22;20486;-78
2022/01/24 13:41:27;;;;;;;35.03;22.90;;;;;;;4.91;100.00;103440.56;6208039;22;20023;-78
2022/01/24 13:44:07;;;;;;;37.05;23.77;;;;;;;4.88;100.00;103431.72;6209438;22;20093;-79
2022/01/24 13:46:44;;;;;;;34.53;23.33;;;;;;;4.88;100.00;103433.44;6206152;22;20210;-77
2022/01/24 13:49:18;;;;;;;35.63;23.73;;;;;;;4.88;100.00;103444.78;6267360;22;20020;-79
2022/01/24 13:52:03;;;;;;;36.72;24.33;;;;;;;4.87;100.00;103442.94;6253285;22;20121;-79